sensor_id;sensor_type;location;lat;lon;timestamp;pressure;altitude;pressure_sealevel;temperature;humidity
51299;BME280;37382;45.192;9.790;2023-08-24T04:07:39;101146.00;;;26.06;100.00
51299;BME280;37382;45.192;9.790;2023-08-24T04:10:08;101150.53;;;25.97;100.00
51299;BME280;37382;45.192;9.790;2023-08-24T04:12:36;101142.81;;;25.83;100.00
51299;BME280;37382;45.192;9.790;2023-08-24T04:15:04;101138.91;;;25.84;100.00
51299;BME280;37382;45.192;9.790;2023-08-24T04:17:32;101157.69;;;25.73;100.00
51299;BME280;37382;45.192;9.790;2023-08-24T04:20:00;101150.25;;;25.59;100.00
51299;BME280;37382;45.192;9.790;2023-08-24T04:22:29;101152.88;;;25.79;100.00
51299;BME280;37382;45.192;9.790;2023-08-24T04:24:56;101155.66;;;25.84;100.00
51299;BME280;37382;45.192;9.790;2023-08-24T04:27:23;101159.31;;;25.80;100.00
51299;BME280;37382;45.192;9.790;2023-08-24T04:29:51;101160.78;;;25.67;100.00
51299;BME280;37382;45.192;9.790;2023-08-24T04:32:19;101162.50;;;25.57;100.00
51299;BME280;37382;45.192;9.790;2023-08-24T04:34:46;101169.81;;;25.48;100.00
51299;BME280;37382;45.192;9.790;2023-08-24T04:37:13;101168.34;;;25.61;100.00
51299;BME280;37382;45.192;9.790;2023-08-24T04:39:41;101170.84;;;25.63;100.00
51299;BME280;37382;45.192;9.790;2023-08-24T04:42:09;101170.22;;;25.71;100.00
51299;BME280;37382;45.192;9.790;2023-08-24T04:44:36;101165.22;;;25.68;100.00
51299;BME280;37382;45.192;9.790;2023-08-24T04:47:04;101166.97;;;25.53;100.00
51299;BME280;37382;45.192;9.790;2023-08-24T04:49:31;101173.72;;;25.47;100.00
51299;BME280;37382;45.192;9.790;2023-08-24T04:51:58;101169.84;;;25.43;100.00
51299;BME280;37382;45.192;9.790;2023-08-24T04:54:26;101174.75;;;25.56;100.00
51299;BME280;37382;45.192;9.790;2023-08-24T04:56:53;101175.91;;;25.55;100.00
51299;BME280;37382;45.192;9.790;2023-08-24T04:59:21;101177.03;;;25.54;100.00
51299;BME280;37382;45.192;9.790;2023-08-24T05:01:48;101183.13;;;25.56;100.00
51299;BME280;37382;45.192;9.790;2023-08-24T05:04:16;101194.41;;;25.36;100.00
51299;BME280;37382;45.192;9.790;2023-08-24T05:06:43;101198.16;;;25.61;100.00
51299;BME280;37382;45.192;9.790;2023-08-24T05:09:11;101193.50;;;25.46;100.00
51299;BME280;37382;45.192;9.790;2023-08-24T05:11:38;101196.00;;;25.47;100.00
51299;BME280;37382;45.192;9.790;2023-08-24T05:14:06;101191.38;;;25.77;100.00
51299;BME280;37382;45.192;9.790;2023-08-24T05:16:33;101197.91;;;25.52;100.00
51299;BME280;37382;45.192;9.790;2023-08-24T05:19:01;101201.41;;;25.78;100.00
51299;BME280;37382;45.192;9.790;2023-08-24T05:21:30;101204.72;;;25.80;100.00
51299;BME280;37382;45.192;9.790;2023-08-24T05:23:57;101203.84;;;25.85;100.00
51299;BME280;37382;45.192;9.790;2023-08-24T05:26:25;101200.69;;;25.97;100.00
51299;BME280;37382;45.192;9.790;2023-08-24T05:28:53;101203.34;;;26.17;100.00
51299;BME280;37382;45.192;9.790;2023-08-24T05:31:20;101196.88;;;26.22;100.00
51299;BME280;37382;45.192;9.790;2023-08-24T05:33:48;101202.38;;;26.32;100.00
51299;BME280;37382;45.192;9.790;2023-08-24T05:36:16;101202.09;;;26.34;100.00
51299;BME280;37382;45.192;9.790;2023-08-24T05:38:44;101199.25;;;26.39;100.00
51299;BME280;37382;45.192;9.790;2023-08-24T05:41:32;101200.56;;;26.76;100.00
51299;BME280;37382;45.192;9.790;2023-08-24T05:43:59;101203.38;;;26.76;100.00
51299;BME280;37382;45.192;9.790;2023-08-24T05:46:27;101205.03;;;26.77;100.00
51299;BME280;37382;45.192;9.790;2023-08-24T05:48:55;101203.00;;;26.83;100.00
51299;BME280;37382;45.192;9.790;2023-08-24T05:51:23;101208.00;;;26.86;100.00
51299;BME280;37382;45.192;9.790;2023-08-24T05:53:51;101210.56;;;27.06;100.00
51299;BME280;37382;45.192;9.790;2023-08-24T05:56:22;101207.88;;;26.96;100.00
51299;BME280;37382;45.192;9.790;2023-08-24T05:58:50;101212.16;;;26.88;100.00
51299;BME280;37382;45.192;9.790;2023-08-24T06:01:22;101205.44;;;27.13;100.00
51299;BME280;37382;45.192;9.790;2023-08-24T06:03:50;101224.75;;;27.10;100.00
51299;BME280;37382;45.192;9.790;2023-08-24T06:06:17;101222.84;;;27.05;100.00
51299;BME280;37382;45.192;9.790;2023-08-24T06:08:46;101224.22;;;27.08;100.00
51299;BME280;37382;45.192;9.790;2023-08-24T06:11:14;101226.75;;;27.04;100.00
51299;BME280;37382;45.192;9.790;2023-08-24T06:13:41;101235.69;;;27.30;100.00
51299;BME280;37382;45.192;9.790;2023-08-24T06:16:08;101229.75;;;27.37;100.00
51299;BME280;37382;45.192;9.790;2023-08-24T06:18:36;101233.19;;;27.29;100.00
51299;BME280;37382;45.192;9.790;2023-08-24T06:21:04;101227.47;;;27.39;100.00
51299;BME280;37382;45.192;9.790;2023-08-24T06:23:32;101231.56;;;27.47;100.00
51299;BME280;37382;45.192;9.790;2023-08-24T06:25:59;101216.84;;;27.41;100.00
51299;BME280;37382;45.192;9.790;2023-08-24T06:28:28;101221.75;;;27.49;100.00
51299;BME280;37382;45.192;9.790;2023-08-24T06:30:56;101221.84;;;27.63;100.00
51299;BME280;37382;45.192;9.790;2023-08-24T06:33:28;101233.88;;;27.64;100.00
51299;BME280;37382;45.192;9.790;2023-08-24T06:35:58;101240.34;;;27.78;100.00
51299;BME280;37382;45.192;9.790;2023-08-24T06:38:26;101241.66;;;27.67;100.00
51299;BME280;37382;45.192;9.790;2023-08-24T06:40:54;101241.69;;;27.62;100.00
51299;BME280;37382;45.192;9.790;2023-08-24T06:43:21;101237.63;;;27.92;100.00
51299;BME280;37382;45.192;9.790;2023-08-24T06:45:49;101234.75;;;27.78;100.00
51299;BME280;37382;45.192;9.790;2023-08-24T06:48:17;101230.16;;;28.07;100.00
51299;BME280;37382;45.192;9.790;2023-08-24T06:50:45;101222.88;;;28.25;100.00
51299;BME280;37382;45.192;9.790;2023-08-24T06:53:13;101220.66;;;28.54;100.00
51299;BME280;37382;45.192;9.790;2023-08-24T06:55:42;101219.91;;;28.68;100.00
51299;BME280;37382;45.192;9.790;2023-08-24T06:58:10;101220.09;;;28.85;100.00
51299;BME280;37382;45.192;9.790;2023-08-24T07:00:37;101213.91;;;29.30;100.00
51299;BME280;37382;45.192;9.790;2023-08-24T07:03:06;101212.34;;;29.38;100.00
51299;BME280;37382;45.192;9.790;2023-08-24T07:05:34;101214.91;;;29.48;100.00
51299;BME280;37382;45.192;9.790;2023-08-24T07:08:04;101212.53;;;29.41;100.00
51299;BME280;37382;45.192;9.790;2023-08-24T07:10:32;101220.25;;;29.36;100.00
51299;BME280;37382;45.192;9.790;2023-08-24T07:13:00;101217.91;;;29.52;100.00
51299;BME280;37382;45.192;9.790;2023-08-24T07:15:28;101222.25;;;29.58;100.00
51299;BME280;37382;45.192;9.790;2023-08-24T07:17:56;101232.84;;;29.61;100.00
51299;BME280;37382;45.192;9.790;2023-08-24T07:20:24;101220.94;;;29.92;100.00
51299;BME280;37382;45.192;9.790;2023-08-24T07:22:52;101221.72;;;30.06;100.00
51299;BME280;37382;45.192;9.790;2023-08-24T07:25:21;101222.78;;;29.96;100.00
51299;BME280;37382;45.192;9.790;2023-08-24T07:27:48;101225.78;;;30.00;100.00
51299;BME280;37382;45.192;9.790;2023-08-24T07:30:17;101215.72;;;29.99;100.00
51299;BME280;37382;45.192;9.790;2023-08-24T07:33:00;101217.38;;;30.00;100.00
51299;BME280;37382;45.192;9.790;2023-08-24T07:35:28;101219.16;;;30.19;100.00
51299;BME280;37382;45.192;9.790;2023-08-24T07:37:56;101224.78;;;30.41;100.00
51299;BME280;37382;45.192;9.790;2023-08-24T07:40:24;101209.75;;;30.68;100.00
51299;BME280;37382;45.192;9.790;2023-08-24T07:42:53;101209.59;;;30.74;100.00
51299;BME280;37382;45.192;9.790;2023-08-24T07:45:23;101211.94;;;30.26;100.00
51299;BME280;37382;45.192;9.790;2023-08-24T07:47:51;101210.97;;;30.31;100.00
51299;BME280;37382;45.192;9.790;2023-08-24T07:50:19;101208.03;;;30.36;100.00
51299;BME280;37382;45.192;9.790;2023-08-24T07:52:47;101216.75;;;30.26;100.00
51299;BME280;37382;45.192;9.790;2023-08-24T07:55:15;101210.44;;;30.43;100.00
51299;BME280;37382;45.192;9.790;2023-08-24T07:57:43;101214.22;;;30.78;100.00
51299;BME280;37382;45.192;9.790;2023-08-24T08:00:11;101219.72;;;30.92;100.00
51299;BME280;37382;45.192;9.790;2023-08-24T08:02:41;101220.13;;;30.99;100.00
51299;BME280;37382;45.192;9.790;2023-08-24T08:05:09;101216.38;;;31.21;100.00
51299;BME280;37382;45.192;9.790;2023-08-24T08:07:40;101221.06;;;31.26;100.00
51299;BME280;37382;45.192;9.790;2023-08-24T08:10:08;101221.88;;;31.27;100.00
51299;BME280;37382;45.192;9.790;2023-08-24T08:12:36;101219.06;;;31.27;100.00
51299;BME280;37382;45.192;9.790;2023-08-24T08:15:04;101220.41;;;31.47;100.00
51299;BME280;37382;45.192;9.790;2023-08-24T08:17:33;101223.84;;;31.35;100.00
51299;BME280;37382;45.192;9.790;2023-08-24T08:20:01;101215.75;;;31.25;100.00
51299;BME280;37382;45.192;9.790;2023-08-24T08:22:30;101217.44;;;31.43;100.00
51299;BME280;37382;45.192;9.790;2023-08-24T08:25:02;101205.50;;;31.29;100.00
51299;BME280;37382;45.192;9.790;2023-08-24T08:27:30;101210.38;;;31.63;100.00
51299;BME280;37382;45.192;9.790;2023-08-24T08:29:58;101210.53;;;31.67;100.00
51299;BME280;37382;45.192;9.790;2023-08-24T08:32:26;101208.56;;;31.67;100.00
51299;BME280;37382;45.192;9.790;2023-08-24T08:34:54;101210.53;;;31.84;100.00
51299;BME280;37382;45.192;9.790;2023-08-24T08:37:27;101211.19;;;31.90;100.00
51299;BME280;37382;45.192;9.790;2023-08-24T08:39:55;101215.47;;;31.52;100.00
51299;BME280;37382;45.192;9.790;2023-08-24T08:42:23;101208.91;;;31.66;100.00
51299;BME280;37382;45.192;9.790;2023-08-24T08:44:51;101208.41;;;31.81;100.00
51299;BME280;37382;45.192;9.790;2023-08-24T08:47:21;101208.22;;;31.86;100.00
51299;BME280;37382;45.192;9.790;2023-08-24T08:49:50;101212.38;;;32.15;100.00
51299;BME280;37382;45.192;9.790;2023-08-24T08:52:19;101209.47;;;32.50;100.00
51299;BME280;37382;45.192;9.790;2023-08-24T08:54:46;101206.28;;;32.69;100.00
51299;BME280;37382;45.192;9.790;2023-08-24T08:57:15;101217.44;;;32.48;100.00
51299;BME280;37382;45.192;9.790;2023-08-24T08:59:43;101212.63;;;32.49;100.00
51299;BME280;37382;45.192;9.790;2023-08-24T09:02:14;101210.84;;;32.26;100.00
51299;BME280;37382;45.192;9.790;2023-08-24T09:04:44;101209.69;;;32.19;100.00
51299;BME280;37382;45.192;9.790;2023-08-24T09:07:13;101202.81;;;32.55;100.00
51299;BME280;37382;45.192;9.790;2023-08-24T09:09:41;101194.50;;;32.76;100.00
51299;BME280;37382;45.192;9.790;2023-08-24T09:12:09;101194.75;;;32.92;100.00
51299;BME280;37382;45.192;9.790;2023-08-24T09:14:37;101196.53;;;32.96;100.00
51299;BME280;37382;45.192;9.790;2023-08-24T09:17:05;101199.53;;;33.00;100.00
51299;BME280;37382;45.192;9.790;2023-08-24T09:19:32;101197.59;;;33.13;100.00
51299;BME280;37382;45.192;9.790;2023-08-24T09:22:02;101194.31;;;33.11;100.00
51299;BME280;37382;45.192;9.790;2023-08-24T09:24:34;101188.84;;;33.06;100.00
51299;BME280;37382;45.192;9.790;2023-08-24T09:27:19;101182.50;;;33.17;100.00
51299;BME280;37382;45.192;9.790;2023-08-24T09:29:51;101183.38;;;33.39;100.00
51299;BME280;37382;45.192;9.790;2023-08-24T09:32:32;101177.81;;;33.30;100.00
51299;BME280;37382;45.192;9.790;2023-08-24T09:35:18;101181.16;;;33.45;99.57
51299;BME280;37382;45.192;9.790;2023-08-24T09:37:49;101168.72;;;33.25;100.00
51299;BME280;37382;45.192;9.790;2023-08-24T09:40:23;101170.16;;;33.31;99.79
51299;BME280;37382;45.192;9.790;2023-08-24T09:42:51;101167.69;;;33.29;99.57
51299;BME280;37382;45.192;9.790;2023-08-24T09:45:19;101169.13;;;33.36;98.11
51299;BME280;37382;45.192;9.790;2023-08-24T09:47:50;101169.69;;;33.50;93.11
51299;BME280;37382;45.192;9.790;2023-08-24T09:50:19;101161.03;;;33.55;85.18
51299;BME280;37382;45.192;9.790;2023-08-24T09:52:47;101162.75;;;33.68;84.67
51299;BME280;37382;45.192;9.790;2023-08-24T09:55:20;101161.84;;;33.77;89.35
51299;BME280;37382;45.192;9.790;2023-08-24T09:57:53;101151.00;;;34.00;86.82
51299;BME280;37382;45.192;9.790;2023-08-24T10:00:22;101151.91;;;33.92;87.61
51299;BME280;37382;45.192;9.790;2023-08-24T10:02:52;101149.59;;;34.06;88.65
51299;BME280;37382;45.192;9.790;2023-08-24T10:05:24;101148.56;;;34.11;84.24
51299;BME280;37382;45.192;9.790;2023-08-24T10:08:09;101141.84;;;34.15;89.39
51299;BME280;37382;45.192;9.790;2023-08-24T10:10:39;101140.63;;;34.25;88.42
51299;BME280;37382;45.192;9.790;2023-08-24T10:13:19;101136.81;;;34.21;88.91
51299;BME280;37382;45.192;9.790;2023-08-24T10:15:50;101136.31;;;34.40;85.77
51299;BME280;37382;45.192;9.790;2023-08-24T10:18:18;101132.97;;;34.26;85.00
51299;BME280;37382;45.192;9.790;2023-08-24T10:20:47;101135.25;;;34.32;84.35
51299;BME280;37382;45.192;9.790;2023-08-24T10:23:16;101131.81;;;34.39;84.48
51299;BME280;37382;45.192;9.790;2023-08-24T10:25:45;101124.78;;;34.45;80.36
51299;BME280;37382;45.192;9.790;2023-08-24T10:28:14;101128.75;;;34.44;81.23
51299;BME280;37382;45.192;9.790;2023-08-24T10:30:44;101120.66;;;34.67;79.19
51299;BME280;37382;45.192;9.790;2023-08-24T10:33:13;101122.06;;;34.49;77.26
51299;BME280;37382;45.192;9.790;2023-08-24T10:35:42;101126.97;;;34.27;79.33
51299;BME280;37382;45.192;9.790;2023-08-24T10:38:23;101125.13;;;34.68;79.56
51299;BME280;37382;45.192;9.790;2023-08-24T10:40:51;101124.44;;;34.84;75.81
51299;BME280;37382;45.192;9.790;2023-08-24T10:43:19;101118.28;;;35.06;76.41
51299;BME280;37382;45.192;9.790;2023-08-24T10:45:58;101115.78;;;35.17;73.25
51299;BME280;37382;45.192;9.790;2023-08-24T10:48:36;101109.41;;;35.20;73.06
51299;BME280;37382;45.192;9.790;2023-08-24T10:51:21;101102.84;;;35.29;73.35
51299;BME280;37382;45.192;9.790;2023-08-24T10:53:55;101110.56;;;35.44;72.40
51299;BME280;37382;45.192;9.790;2023-08-24T10:59:14;101095.53;;;35.56;71.25
51299;BME280;37382;45.192;9.790;2023-08-24T11:04:22;101097.63;;;35.31;74.09
51299;BME280;37382;45.192;9.790;2023-08-24T11:06:58;101101.84;;;35.37;73.72
51299;BME280;37382;45.192;9.790;2023-08-24T11:09:51;101099.09;;;35.53;73.40
51299;BME280;37382;45.192;9.790;2023-08-24T11:12:19;101092.88;;;35.47;72.79
51299;BME280;37382;45.192;9.790;2023-08-24T11:14:51;101081.13;;;36.05;69.79
51299;BME280;37382;45.192;9.790;2023-08-24T11:17:22;101082.22;;;36.01;70.23
51299;BME280;37382;45.192;9.790;2023-08-24T11:19:52;101079.03;;;36.02;68.83
51299;BME280;37382;45.192;9.790;2023-08-24T11:22:21;101079.59;;;36.24;68.57
51299;BME280;37382;45.192;9.790;2023-08-24T11:24:49;101078.22;;;35.73;62.45
51299;BME280;37382;45.192;9.790;2023-08-24T11:27:17;101068.25;;;36.56;60.68
51299;BME280;37382;45.192;9.790;2023-08-24T11:29:58;101062.78;;;36.47;56.91
51299;BME280;37382;45.192;9.790;2023-08-24T11:32:25;101060.19;;;36.74;61.79
51299;BME280;37382;45.192;9.790;2023-08-24T11:34:52;101057.09;;;36.63;62.93
51299;BME280;37382;45.192;9.790;2023-08-24T11:37:20;101064.59;;;36.07;57.23
51299;BME280;37382;45.192;9.790;2023-08-24T11:39:48;101051.00;;;36.61;55.05
51299;BME280;37382;45.192;9.790;2023-08-24T11:42:15;101047.69;;;36.75;55.58
51299;BME280;37382;45.192;9.790;2023-08-24T11:44:45;101042.66;;;37.23;53.75
51299;BME280;37382;45.192;9.790;2023-08-24T11:47:15;101051.75;;;37.13;56.43
51299;BME280;37382;45.192;9.790;2023-08-24T11:49:44;101041.66;;;37.74;53.38
51299;BME280;37382;45.192;9.790;2023-08-24T11:52:11;101043.88;;;37.42;54.90
51299;BME280;37382;45.192;9.790;2023-08-24T11:54:43;101039.13;;;37.69;55.54
51299;BME280;37382;45.192;9.790;2023-08-24T11:57:11;101041.72;;;37.58;56.57
51299;BME280;37382;45.192;9.790;2023-08-24T11:59:39;101038.44;;;37.76;54.48
51299;BME280;37382;45.192;9.790;2023-08-24T12:02:08;101032.53;;;37.65;55.55
51299;BME280;37382;45.192;9.790;2023-08-24T12:04:40;101022.56;;;37.51;56.15
51299;BME280;37382;45.192;9.790;2023-08-24T12:07:11;101027.66;;;37.42;52.60
51299;BME280;37382;45.192;9.790;2023-08-24T12:09:43;101019.34;;;37.53;54.38
51299;BME280;37382;45.192;9.790;2023-08-24T12:12:13;101019.19;;;37.88;52.72
51299;BME280;37382;45.192;9.790;2023-08-24T12:14:44;101017.78;;;37.55;53.08
51299;BME280;37382;45.192;9.790;2023-08-24T12:17:13;101024.22;;;37.52;55.79
51299;BME280;37382;45.192;9.790;2023-08-24T12:19:45;101020.09;;;37.92;52.79
51299;BME280;37382;45.192;9.790;2023-08-24T12:22:17;101016.75;;;38.10;52.73
51299;BME280;37382;45.192;9.790;2023-08-24T12:24:46;101006.88;;;38.54;53.62
51299;BME280;37382;45.192;9.790;2023-08-24T12:27:25;101008.41;;;38.48;47.29
51299;BME280;37382;45.192;9.790;2023-08-24T12:29:53;100992.00;;;38.11;48.69
51299;BME280;37382;45.192;9.790;2023-08-24T12:32:21;100999.97;;;38.51;50.07
51299;BME280;37382;45.192;9.790;2023-08-24T12:34:51;100984.38;;;38.41;50.96
51299;BME280;37382;45.192;9.790;2023-08-24T12:37:18;100978.09;;;38.29;48.14
51299;BME280;37382;45.192;9.790;2023-08-24T12:39:46;100977.22;;;38.51;49.04
51299;BME280;37382;45.192;9.790;2023-08-24T12:42:16;100974.56;;;38.96;49.05
51299;BME280;37382;45.192;9.790;2023-08-24T12:44:44;100976.78;;;39.10;50.40
51299;BME280;37382;45.192;9.790;2023-08-24T12:47:12;100976.78;;;39.10;49.18
51299;BME280;37382;45.192;9.790;2023-08-24T12:49:39;100969.22;;;39.21;45.97
51299;BME280;37382;45.192;9.790;2023-08-24T12:52:07;100966.47;;;39.32;49.00
51299;BME280;37382;45.192;9.790;2023-08-24T12:54:34;100965.09;;;39.15;46.28
51299;BME280;37382;45.192;9.790;2023-08-24T12:57:02;100960.31;;;39.26;47.42
51299;BME280;37382;45.192;9.790;2023-08-24T12:59:29;100957.34;;;39.16;49.09
51299;BME280;37382;45.192;9.790;2023-08-24T13:01:57;100956.41;;;39.42;48.58
51299;BME280;37382;45.192;9.790;2023-08-24T13:04:25;100951.78;;;39.64;46.93
51299;BME280;37382;45.192;9.790;2023-08-24T13:06:53;100945.41;;;39.81;43.15
51299;BME280;37382;45.192;9.790;2023-08-24T13:09:20;100945.41;;;39.85;44.03
51299;BME280;37382;45.192;9.790;2023-08-24T13:11:49;100942.94;;;39.80;45.55
51299;BME280;37382;45.192;9.790;2023-08-24T13:14:17;100942.34;;;39.56;45.68
51299;BME280;37382;45.192;9.790;2023-08-24T13:16:44;100937.41;;;39.53;45.07
51299;BME280;37382;45.192;9.790;2023-08-24T13:19:13;100939.06;;;39.54;45.07
51299;BME280;37382;45.192;9.790;2023-08-24T13:21:40;100938.69;;;39.18;47.15
51299;BME280;37382;45.192;9.790;2023-08-24T13:24:08;100937.63;;;39.75;45.88
51299;BME280;37382;45.192;9.790;2023-08-24T13:26:36;100936.28;;;39.58;44.78
51299;BME280;37382;45.192;9.790;2023-08-24T13:29:05;100931.00;;;39.63;43.49
51299;BME280;37382;45.192;9.790;2023-08-24T13:31:33;100931.56;;;39.80;43.54
51299;BME280;37382;45.192;9.790;2023-08-24T13:34:00;100925.72;;;39.62;42.52
51299;BME280;37382;45.192;9.790;2023-08-24T13:36:31;100930.78;;;39.42;45.33
51299;BME280;37382;45.192;9.790;2023-08-24T13:38:59;100915.66;;;39.30;46.59
51299;BME280;37382;45.192;9.790;2023-08-24T13:41:27;100912.91;;;39.41;44.96
51299;BME280;37382;45.192;9.790;2023-08-24T13:43:54;100912.16;;;39.96;45.68
51299;BME280;37382;45.192;9.790;2023-08-24T13:46:22;100908.25;;;40.19;44.93
51299;BME280;37382;45.192;9.790;2023-08-24T13:48:49;100902.28;;;39.87;43.72
51299;BME280;37382;45.192;9.790;2023-08-24T13:51:17;100910.88;;;39.42;43.75
51299;BME280;37382;45.192;9.790;2023-08-24T13:53:47;100907.03;;;39.68;42.66
51299;BME280;37382;45.192;9.790;2023-08-24T13:56:14;100898.69;;;39.93;43.56
51299;BME280;37382;45.192;9.790;2023-08-24T13:58:42;100896.13;;;40.36;41.84
51299;BME280;37382;45.192;9.790;2023-08-24T14:01:10;100893.66;;;40.31;43.49
51299;BME280;37382;45.192;9.790;2023-08-24T14:03:39;100904.78;;;39.43;45.63
51299;BME280;37382;45.192;9.790;2023-08-24T14:06:10;100897.28;;;40.25;41.98
51299;BME280;37382;45.192;9.790;2023-08-24T14:08:38;100900.19;;;39.31;45.68
51299;BME280;37382;45.192;9.790;2023-08-24T14:11:05;100899.94;;;39.47;44.83
51299;BME280;37382;45.192;9.790;2023-08-24T14:13:32;100891.34;;;40.55;40.72
51299;BME280;37382;45.192;9.790;2023-08-24T14:16:00;100894.34;;;40.87;39.59
51299;BME280;37382;45.192;9.790;2023-08-24T14:18:28;100888.66;;;40.87;39.75
51299;BME280;37382;45.192;9.790;2023-08-24T14:20:57;100888.66;;;40.87;42.61
51299;BME280;37382;45.192;9.790;2023-08-24T14:23:24;100896.41;;;40.90;42.10
51299;BME280;37382;45.192;9.790;2023-08-24T14:25:52;100884.88;;;40.65;41.71
51299;BME280;37382;45.192;9.790;2023-08-24T14:28:21;100886.66;;;41.10;42.19
51299;BME280;37382;45.192;9.790;2023-08-24T14:30:50;100873.19;;;42.29;38.69
51299;BME280;37382;45.192;9.790;2023-08-24T14:33:18;100870.81;;;45.74;35.23
51299;BME280;37382;45.192;9.790;2023-08-24T14:35:53;100871.72;;;46.91;31.63
51299;BME280;37382;45.192;9.790;2023-08-24T14:38:21;100872.78;;;50.59;28.05
51299;BME280;37382;45.192;9.790;2023-08-24T14:40:48;100874.28;;;52.19;25.26
51299;BME280;37382;45.192;9.790;2023-08-24T14:43:16;100885.31;;;53.58;23.15
51299;BME280;37382;45.192;9.790;2023-08-24T14:45:43;100873.84;;;54.63;22.07
51299;BME280;37382;45.192;9.790;2023-08-24T14:48:11;100869.59;;;54.04;21.60
51299;BME280;37382;45.192;9.790;2023-08-24T14:50:39;100862.31;;;54.38;21.01
51299;BME280;37382;45.192;9.790;2023-08-24T14:53:07;100861.56;;;56.44;19.10
51299;BME280;37382;45.192;9.790;2023-08-24T14:55:37;100850.38;;;56.37;18.79
51299;BME280;37382;45.192;9.790;2023-08-24T14:58:05;100851.81;;;57.22;18.51
51299;BME280;37382;45.192;9.790;2023-08-24T15:00:33;100855.28;;;57.26;18.37
51299;BME280;37382;45.192;9.790;2023-08-24T15:03:01;100850.69;;;57.80;18.20
51299;BME280;37382;45.192;9.790;2023-08-24T15:05:29;100834.25;;;55.06;20.52
51299;BME280;37382;45.192;9.790;2023-08-24T15:07:57;100833.34;;;53.90;20.77
51299;BME280;37382;45.192;9.790;2023-08-24T15:10:28;100838.78;;;55.28;19.59
51299;BME280;37382;45.192;9.790;2023-08-24T15:12:56;100837.19;;;57.22;18.42
51299;BME280;37382;45.192;9.790;2023-08-24T15:15:23;100839.03;;;56.44;18.79
51299;BME280;37382;45.192;9.790;2023-08-24T15:17:51;100832.22;;;55.13;19.21
51299;BME280;37382;45.192;9.790;2023-08-24T15:20:19;100829.97;;;54.36;20.44
51299;BME280;37382;45.192;9.790;2023-08-24T15:22:46;100829.97;;;55.22;20.45
51299;BME280;37382;45.192;9.790;2023-08-24T15:25:15;100831.66;;;55.50;20.09
51299;BME280;37382;45.192;9.790;2023-08-24T15:27:42;100830.50;;;55.41;20.12
51299;BME280;37382;45.192;9.790;2023-08-24T15:30:10;100817.00;;;55.65;19.17
51299;BME280;37382;45.192;9.790;2023-08-24T15:32:40;100819.81;;;56.32;19.04
51299;BME280;37382;45.192;9.790;2023-08-24T15:35:08;100813.13;;;52.75;22.14
51299;BME280;37382;45.192;9.790;2023-08-24T15:37:36;100823.03;;;53.02;21.40
51299;BME280;37382;45.192;9.790;2023-08-24T15:40:04;100818.19;;;51.85;22.72
51299;BME280;37382;45.192;9.790;2023-08-24T15:42:31;100822.53;;;51.90;22.44
51299;BME280;37382;45.192;9.790;2023-08-24T15:45:00;100820.59;;;51.77;22.33
51299;BME280;37382;45.192;9.790;2023-08-24T15:47:28;100811.84;;;52.33;22.55
51299;BME280;37382;45.192;9.790;2023-08-24T15:49:56;100814.31;;;51.88;23.08
51299;BME280;37382;45.192;9.790;2023-08-24T15:52:26;100815.13;;;51.98;22.22
51299;BME280;37382;45.192;9.790;2023-08-24T15:54:53;100812.53;;;52.71;21.55
51299;BME280;37382;45.192;9.790;2023-08-24T15:57:21;100811.41;;;51.33;23.09
51299;BME280;37382;45.192;9.790;2023-08-24T15:59:49;100813.34;;;50.45;23.79
51299;BME280;37382;45.192;9.790;2023-08-24T16:02:16;100806.41;;;48.80;25.72
51299;BME280;37382;45.192;9.790;2023-08-24T16:04:44;100815.22;;;48.22;26.31
51299;BME280;37382;45.192;9.790;2023-08-24T16:07:12;100805.31;;;45.85;28.73
51299;BME280;37382;45.192;9.790;2023-08-24T16:09:41;100806.47;;;47.67;27.10
51299;BME280;37382;45.192;9.790;2023-08-24T16:12:09;100810.84;;;47.88;27.18
51299;BME280;37382;45.192;9.790;2023-08-24T16:14:37;100806.91;;;47.82;27.12
51299;BME280;37382;45.192;9.790;2023-08-24T16:17:07;100808.53;;;48.38;26.93
51299;BME280;37382;45.192;9.790;2023-08-24T16:19:35;100809.44;;;48.35;26.86
51299;BME280;37382;45.192;9.790;2023-08-24T16:22:02;100805.91;;;48.43;26.70
51299;BME280;37382;45.192;9.790;2023-08-24T16:24:35;100803.25;;;45.42;30.14
51299;BME280;37382;45.192;9.790;2023-08-24T16:27:03;100799.25;;;47.58;27.56
51299;BME280;37382;45.192;9.790;2023-08-24T16:29:31;100794.06;;;48.93;27.08
51299;BME280;37382;45.192;9.790;2023-08-24T16:31:59;100800.31;;;49.74;26.38
51299;BME280;37382;45.192;9.790;2023-08-24T16:34:27;100800.47;;;48.45;27.47
51299;BME280;37382;45.192;9.790;2023-08-24T16:36:54;100796.53;;;48.39;27.49
51299;BME280;37382;45.192;9.790;2023-08-24T16:39:22;100805.84;;;46.40;29.11
51299;BME280;37382;45.192;9.790;2023-08-24T16:41:52;100796.81;;;46.58;29.36
51299;BME280;37382;45.192;9.790;2023-08-24T16:44:20;100791.09;;;45.78;30.22
51299;BME280;37382;45.192;9.790;2023-08-24T16:46:48;100794.06;;;45.03;31.52
51299;BME280;37382;45.192;9.790;2023-08-24T16:49:18;100795.03;;;44.66;31.61
51299;BME280;37382;45.192;9.790;2023-08-24T16:51:48;100798.78;;;44.63;32.35
51299;BME280;37382;45.192;9.790;2023-08-24T16:54:16;100800.25;;;45.02;31.47
51299;BME280;37382;45.192;9.790;2023-08-24T16:56:44;100809.56;;;43.86;33.17
51299;BME280;37382;45.192;9.790;2023-08-24T16:59:17;100813.94;;;43.07;34.26
51299;BME280;37382;45.192;9.790;2023-08-24T17:01:44;100799.81;;;41.54;36.61
51299;BME280;37382;45.192;9.790;2023-08-24T17:04:12;100807.59;;;41.46;36.75
51299;BME280;37382;45.192;9.790;2023-08-24T17:06:40;100808.78;;;40.91;37.16